SBOSBO YVR / CYVR
Speedbird OnlineSpeedbird Online YVR / CYVR

Vancouver International Airport
00:15 13.8°C

Location Vancouver, Canada
Latitude: 49.193901062
Longitude: -123.183998108
Web Airport Website | Wikipedia
Altitude 4 Meter / 14 Feet
Distance 7,599 KM / 4,722 Miles
from London.
Time Zone UTC -7 hours (America/Vancouver)
Codes IATA: YVR
ICAO: CYVR
Currency £1 equals CAD 1.54
Runways
RunwayLength (m)Surface
08L3030Concrete
08R3505Asphalt
26A1067Concrete
26L3505Asphalt
26R3030Concrete
XX1067Concrete
132225Concrete
312225Concrete
Radio
TypeDescriptionFrequency
APPAPP128.6
ATISATIS124.6
CLDCLNC DEL121.4
DEPDEP126.125
GNDGND121.7
RCOPACIFIC RDO123.15
TWRTWR118.7
TWRTWR23.66
Live ATC
METAR CYVR 060700Z 07006KT 15SM FEW130 BKN220 14/14 A3017 RMK AC1CI5 AC TR HZ SLP220
TAF TAF CYVR 060540Z 0606/0712 VRB03KT P6SM FEW220 PROB40 0610/0616 1SM BR BECMG 0616/0618 29008KT RMK NXT FCST BY 060900Z
Weather As Of 06 Oct 2022 00:15
Description Haze
Wind 11 km/h from East (70°)
Cloud Cover 75%
Precipitation Rain: none, Snow: none
Sunrise 07:19
Sunset 18:41
Lounges Cathay Pacific Lounge (Temporarily Closed), International Departure
Plaza Premium Lounge, International Departures
Rotations During the last 90 days there were
83 flights from LHR
82 flights to LHR


© 2017-2022 Speedbird Online